STAZIONE METEO DI BARCELLONA P.G. CENTRO
Dati campionati ogni minuto da Consolle Davis Vantage Pro 2
ed inviati alla rete mediante server Anemos WDS5 wview



Barcellona P.G. Centro more information Barcellona P.G. Centro


Golfo di Patti more information Golfo di Patti


Thunder radar more information blitzortung!


Rain radar  rain snow radar


altri nostri siti meteo:

Rete NOAA MADIS

Italia Meteo Network

Pomeziameteo

Varazze Meteo



Vento Inizio validità dal: 25-04-2019 09:00 Fino: 22:59 Allerta per: Vento Livello: Giallo info button
english:
No Special Awareness Required BE AWARE, keep up to date with the latest weather forecast. Expect some minor disruption to outdoor activities

italiano:
Nessun Avviso STARE (RIMANERE) ATTENTI. Tenersi aggiornati con le previsioni del tempo più recenti. Aspettarsi alcuni disagi minori per le attività all'aria aperta. 

Report METAR

   
LICF - Barcellona Pozzo di Gotto
Dati ricevuti: 25-04-2019 15:55
Parzialmente nuvoloso  
Parzialmente nuvoloso  
   Vento: Sud 9.3 km/h
Vento: Sud 9.3 km/h
Temperatura: 21°C
P.to Rugiada: 12°C
Umidità: 57%
Barometro: 1016 hPa
Nuvole: Parzialmente nuvoloso
Visibilità: 8 km
dettagli cloud: Parzialmente nuvoloso
LICF 251355Z 19005KT 8000 NSC 21/12 Q1016 RMK SKC QUK 2 QUL 1 SW VIS MAR 8 KM MON LIB NC VIS MIN 8000
LICC - Catania
Dati ricevuti: 25-04-2019 16:20
Parzialmente nuvoloso  
Parzialmente nuvoloso  
   Vento: NE 24.1 km/h
Vento: NE 24.1 km/h
Temperatura: 23°C
P.to Rugiada: 13°C
Umidità: 53%
Barometro: 1017 hPa
Nuvole: Parzialmente nuvoloso
Visibilità: 8 km
dettagli cloud: Parzialmente nuvoloso
LICC 251420Z 07013KT 8000 NSC 23/13 Q1017
LICJ - Palermo
Dati ricevuti: 25-04-2019 16:20
Parzialmente nuvoloso  
Parzialmente nuvoloso  
   Vento: Variabile 3.7 km/h
Vento: Variabile 3.7 km/h
Temperatura: 20°C
P.to Rugiada: 16°C
Umidità: 78%
Barometro: 1016 hPa
Nuvole: Parzialmente nuvoloso
Visibilità: 9 km
dettagli cloud: Parzialmente nuvoloso
LICJ 251420Z VRB02KT 9000 NSC 20/16 Q1016
LICF - Messina
Dati ricevuti: 25-04-2019 15:55
Parzialmente nuvoloso  
Parzialmente nuvoloso  
   Vento: Sud 9.3 km/h
Vento: Sud 9.3 km/h
Temperatura: 21°C
P.to Rugiada: 12°C
Umidità: 57%
Barometro: 1016 hPa
Nuvole: Parzialmente nuvoloso
Visibilità: 8 km
dettagli cloud: Parzialmente nuvoloso
LICF 251355Z 19005KT 8000 NSC 21/12 Q1016 RMK SKC QUK 2 QUL 1 SW VIS MAR 8 KM MON LIB NC VIS MIN 8000
LICC - Milazzo
Dati ricevuti: 25-04-2019 16:20
Parzialmente nuvoloso  
Parzialmente nuvoloso  
   Vento: NE 24.1 km/h
Vento: NE 24.1 km/h
Temperatura: 23°C
P.to Rugiada: 13°C
Umidità: 53%
Barometro: 1017 hPa
Nuvole: Parzialmente nuvoloso
Visibilità: 8 km
dettagli cloud: Parzialmente nuvoloso
LICC 251420Z 07013KT 8000 NSC 23/13 Q1017
LICC - Terme Vigliatore
Dati ricevuti: 25-04-2019 16:20
Parzialmente nuvoloso  
Parzialmente nuvoloso  
   Vento: NE 24.1 km/h
Vento: NE 24.1 km/h
Temperatura: 23°C
P.to Rugiada: 13°C
Umidità: 53%
Barometro: 1017 hPa
Nuvole: Parzialmente nuvoloso
Visibilità: 8 km
dettagli cloud: Parzialmente nuvoloso
LICC 251420Z 07013KT 8000 NSC 23/13 Q1017
LICT - Trapani
Dati ricevuti: 25-04-2019 15:55
Poche nuvole  
Poche nuvole  
   Vento: West 16.7 km/h
Vento: West 16.7 km/h
Temperatura: 23°C
P.to Rugiada: 19°C
Umidità: 78%
Barometro: 1016 hPa
Nuvole: Poche nuvole
Visibilità: 9 km
dettagli cloud: Poche nuvole 1500 ft
LICT 251355Z 27009KT 9000 FEW015 23/19 Q1016
  

Script sviluppato da  Saratoga-weather.org Adattato per il modello da  Weerstation Leuven

Potete trovare le nostre info meteo anche a:

European Weather Network

Weather Underground

AWEKAS

Citizen Weather Observer Program (CWOP)

HAMweather, WeatherForYou, PWS Weather

Strumentazione usata:

Stazione meteo
Davis VP2

Programma gestore dati meteo
WVIEW

Server per i dati meteo
WDS5 Ecoblack

Davis VP2

WVIEW

WDS5 Ecoblack